sensor_id;sensor_type;location;lat;lon;timestamp;pressure;altitude;pressure_sealevel;temperature;humidity
42001;BME280;27689;48.390;10.856;2023-05-11T00:01:04;95951.75;;;9.90;100.00
42001;BME280;27689;48.390;10.856;2023-05-11T00:03:48;95935.50;;;9.86;100.00
42001;BME280;27689;48.390;10.856;2023-05-11T00:06:32;95940.34;;;9.81;100.00
42001;BME280;27689;48.390;10.856;2023-05-11T00:09:16;95931.03;;;9.79;100.00
42001;BME280;27689;48.390;10.856;2023-05-11T00:12:00;95930.69;;;9.82;100.00
42001;BME280;27689;48.390;10.856;2023-05-11T00:14:45;95932.97;;;9.77;100.00
42001;BME280;27689;48.390;10.856;2023-05-11T00:17:29;95935.44;;;9.78;100.00
42001;BME280;27689;48.390;10.856;2023-05-11T00:20:13;95930.41;;;9.85;100.00
42001;BME280;27689;48.390;10.856;2023-05-11T00:22:57;95935.38;;;9.88;100.00
42001;BME280;27689;48.390;10.856;2023-05-11T00:25:41;95936.13;;;9.98;100.00
42001;BME280;27689;48.390;10.856;2023-05-11T00:28:25;95937.63;;;10.01;100.00
42001;BME280;27689;48.390;10.856;2023-05-11T00:31:09;95929.34;;;10.05;100.00
42001;BME280;27689;48.390;10.856;2023-05-11T00:33:53;95936.78;;;10.00;100.00
42001;BME280;27689;48.390;10.856;2023-05-11T00:36:38;95930.00;;;10.07;100.00
42001;BME280;27689;48.390;10.856;2023-05-11T00:39:22;95928.72;;;10.11;100.00
42001;BME280;27689;48.390;10.856;2023-05-11T00:42:06;95936.72;;;10.10;100.00
42001;BME280;27689;48.390;10.856;2023-05-11T00:44:50;95935.88;;;10.19;100.00
42001;BME280;27689;48.390;10.856;2023-05-11T00:47:34;95925.81;;;10.14;100.00
42001;BME280;27689;48.390;10.856;2023-05-11T00:50:18;95923.88;;;10.16;100.00
42001;BME280;27689;48.390;10.856;2023-05-11T00:53:03;95927.22;;;10.18;100.00
42001;BME280;27689;48.390;10.856;2023-05-11T00:55:47;95935.59;;;10.22;100.00
42001;BME280;27689;48.390;10.856;2023-05-11T00:58:31;95932.97;;;10.22;100.00
42001;BME280;27689;48.390;10.856;2023-05-11T01:01:15;95929.13;;;10.16;100.00
42001;BME280;27689;48.390;10.856;2023-05-11T01:04:01;95920.50;;;10.06;100.00
42001;BME280;27689;48.390;10.856;2023-05-11T01:15:54;95921.34;;;9.79;100.00
42001;BME280;27689;48.390;10.856;2023-05-11T01:19:05;95913.69;;;9.78;100.00
42001;BME280;27689;48.390;10.856;2023-05-11T01:21:51;95923.31;;;9.77;100.00
42001;BME280;27689;48.390;10.856;2023-05-11T01:24:58;95922.91;;;9.72;100.00
42001;BME280;27689;48.390;10.856;2023-05-11T01:28:22;95914.53;;;9.69;100.00
42001;BME280;27689;48.390;10.856;2023-05-11T01:31:10;95915.50;;;9.68;100.00
42001;BME280;27689;48.390;10.856;2023-05-11T01:34:03;95911.63;;;9.72;100.00
42001;BME280;27689;48.390;10.856;2023-05-11T01:36:55;95918.25;;;9.66;100.00
42001;BME280;27689;48.390;10.856;2023-05-11T01:39:52;95925.44;;;9.64;100.00
42001;BME280;27689;48.390;10.856;2023-05-11T01:42:42;95919.09;;;9.67;100.00
42001;BME280;27689;48.390;10.856;2023-05-11T01:45:29;95922.78;;;9.74;100.00
42001;BME280;27689;48.390;10.856;2023-05-11T01:48:17;95915.97;;;9.63;100.00
42001;BME280;27689;48.390;10.856;2023-05-11T01:51:03;95917.75;;;9.63;100.00
42001;BME280;27689;48.390;10.856;2023-05-11T01:53:48;95914.16;;;9.64;100.00
42001;BME280;27689;48.390;10.856;2023-05-11T01:56:34;95924.56;;;9.73;100.00
42001;BME280;27689;48.390;10.856;2023-05-11T01:59:18;95912.53;;;9.63;100.00
42001;BME280;27689;48.390;10.856;2023-05-11T02:02:03;95916.03;;;9.71;100.00
42001;BME280;27689;48.390;10.856;2023-05-11T02:04:47;95922.78;;;9.74;100.00
42001;BME280;27689;48.390;10.856;2023-05-11T02:07:33;95921.34;;;9.79;100.00
42001;BME280;27689;48.390;10.856;2023-05-11T02:10:19;95915.47;;;9.77;100.00
42001;BME280;27689;48.390;10.856;2023-05-11T02:13:04;95924.13;;;9.78;100.00
42001;BME280;27689;48.390;10.856;2023-05-11T02:15:51;95916.66;;;9.83;100.00
42001;BME280;27689;48.390;10.856;2023-05-11T02:18:40;95919.94;;;9.85;100.00
42001;BME280;27689;48.390;10.856;2023-05-11T02:21:26;95922.63;;;9.75;100.00
42001;BME280;27689;48.390;10.856;2023-05-11T02:24:11;95912.38;;;9.82;100.00
42001;BME280;27689;48.390;10.856;2023-05-11T02:26:56;95920.78;;;9.85;100.00
42001;BME280;27689;48.390;10.856;2023-05-11T02:29:40;95921.53;;;9.78;100.00
42001;BME280;27689;48.390;10.856;2023-05-11T02:32:24;95906.69;;;9.69;100.00
42001;BME280;27689;48.390;10.856;2023-05-11T02:35:23;95916.00;;;9.53;100.00
42001;BME280;27689;48.390;10.856;2023-05-11T02:38:09;95914.69;;;9.67;100.00
42001;BME280;27689;48.390;10.856;2023-05-11T02:40:57;95917.75;;;9.63;100.00
42001;BME280;27689;48.390;10.856;2023-05-11T02:43:46;95917.16;;;9.69;100.00
42001;BME280;27689;48.390;10.856;2023-05-11T02:46:34;95916.19;;;9.70;100.00
42001;BME280;27689;48.390;10.856;2023-05-11T02:49:21;95907.50;;;9.69;100.00
42001;BME280;27689;48.390;10.856;2023-05-11T02:52:09;95913.56;;;9.70;100.00
42001;BME280;27689;48.390;10.856;2023-05-11T02:54:54;95913.97;;;9.75;100.00
42001;BME280;27689;48.390;10.856;2023-05-11T02:57:39;95904.25;;;9.85;100.00
42001;BME280;27689;48.390;10.856;2023-05-11T03:00:23;95902.06;;;9.80;100.00
42001;BME280;27689;48.390;10.856;2023-05-11T03:03:07;95901.09;;;9.81;100.00
42001;BME280;27689;48.390;10.856;2023-05-11T03:05:51;95900.19;;;9.73;100.00
42001;BME280;27689;48.390;10.856;2023-05-11T03:08:35;95893.19;;;9.73;100.00
42001;BME280;27689;48.390;10.856;2023-05-11T03:11:20;95897.72;;;9.71;100.00
42001;BME280;27689;48.390;10.856;2023-05-11T03:14:05;95899.13;;;9.66;100.00
42001;BME280;27689;48.390;10.856;2023-05-11T03:16:49;95903.25;;;9.68;100.00
42001;BME280;27689;48.390;10.856;2023-05-11T03:19:34;95904.97;;;9.60;100.00
42001;BME280;27689;48.390;10.856;2023-05-11T03:22:21;95898.06;;;9.59;100.00
42001;BME280;27689;48.390;10.856;2023-05-11T03:25:05;95901.53;;;9.59;100.00
42001;BME280;27689;48.390;10.856;2023-05-11T03:27:51;95893.81;;;9.58;100.00
42001;BME280;27689;48.390;10.856;2023-05-11T03:30:36;95894.63;;;9.58;100.00
42001;BME280;27689;48.390;10.856;2023-05-11T03:33:22;95889.69;;;9.55;100.00
42001;BME280;27689;48.390;10.856;2023-05-11T03:36:08;95889.16;;;9.51;100.00
42001;BME280;27689;48.390;10.856;2023-05-11T03:38:53;95886.84;;;9.48;100.00
42001;BME280;27689;48.390;10.856;2023-05-11T03:41:39;95894.38;;;9.51;100.00
42001;BME280;27689;48.390;10.856;2023-05-11T03:44:24;95887.50;;;9.50;100.00
42001;BME280;27689;48.390;10.856;2023-05-11T03:47:09;95890.44;;;9.47;100.00
42001;BME280;27689;48.390;10.856;2023-05-11T03:49:54;95888.09;;;9.44;100.00
42001;BME280;27689;48.390;10.856;2023-05-11T03:52:38;95888.94;;;9.45;100.00
42001;BME280;27689;48.390;10.856;2023-05-11T03:55:23;95881.31;;;9.51;100.00
42001;BME280;27689;48.390;10.856;2023-05-11T03:58:07;95886.41;;;9.53;100.00
42001;BME280;27689;48.390;10.856;2023-05-11T04:00:52;95887.34;;;9.62;100.00
42001;BME280;27689;48.390;10.856;2023-05-11T04:03:50;95883.44;;;9.66;100.00
42001;BME280;27689;48.390;10.856;2023-05-11T04:06:34;95885.09;;;9.67;100.00
42001;BME280;27689;48.390;10.856;2023-05-11T04:09:18;95874.25;;;9.62;100.00
42001;BME280;27689;48.390;10.856;2023-05-11T04:12:02;95886.44;;;9.71;100.00
42001;BME280;27689;48.390;10.856;2023-05-11T04:14:46;95877.63;;;9.72;100.00
42001;BME280;27689;48.390;10.856;2023-05-11T04:17:30;95877.69;;;9.62;100.00
42001;BME280;27689;48.390;10.856;2023-05-11T04:20:14;95883.91;;;9.61;100.00
42001;BME280;27689;48.390;10.856;2023-05-11T04:22:59;95883.16;;;9.69;100.00
42001;BME280;27689;48.390;10.856;2023-05-11T04:25:43;95875.16;;;9.70;100.00
42001;BME280;27689;48.390;10.856;2023-05-11T04:28:27;95875.84;;;9.72;100.00
42001;BME280;27689;48.390;10.856;2023-05-11T04:31:12;95882.03;;;9.71;100.00
42001;BME280;27689;48.390;10.856;2023-05-11T04:33:56;95887.66;;;9.76;100.00
42001;BME280;27689;48.390;10.856;2023-05-11T04:36:40;95878.31;;;9.74;100.00
42001;BME280;27689;48.390;10.856;2023-05-11T04:39:25;95890.13;;;9.78;100.00
42001;BME280;27689;48.390;10.856;2023-05-11T04:42:08;95886.22;;;9.82;100.00
42001;BME280;27689;48.390;10.856;2023-05-11T04:44:52;95881.31;;;9.79;100.00
42001;BME280;27689;48.390;10.856;2023-05-11T04:47:37;95883.94;;;9.79;100.00
42001;BME280;27689;48.390;10.856;2023-05-11T04:50:21;95879.59;;;9.87;100.00
42001;BME280;27689;48.390;10.856;2023-05-11T04:53:05;95882.59;;;9.93;100.00
42001;BME280;27689;48.390;10.856;2023-05-11T04:55:49;95880.41;;;9.88;100.00
42001;BME280;27689;48.390;10.856;2023-05-11T04:58:33;95884.53;;;9.90;100.00
42001;BME280;27689;48.390;10.856;2023-05-11T05:01:17;95884.53;;;9.90;100.00
42001;BME280;27689;48.390;10.856;2023-05-11T05:04:02;95886.41;;;9.98;100.00
42001;BME280;27689;48.390;10.856;2023-05-11T05:06:46;95882.75;;;9.91;100.00
42001;BME280;27689;48.390;10.856;2023-05-11T05:09:30;95880.13;;;9.91;100.00
42001;BME280;27689;48.390;10.856;2023-05-11T05:12:14;95884.53;;;9.90;100.00
42001;BME280;27689;48.390;10.856;2023-05-11T05:14:58;95882.13;;;9.97;100.00
42001;BME280;27689;48.390;10.856;2023-05-11T05:17:42;95877.22;;;9.94;100.00
42001;BME280;27689;48.390;10.856;2023-05-11T05:20:26;95880.13;;;9.91;100.00
42001;BME280;27689;48.390;10.856;2023-05-11T05:23:10;95881.25;;;9.88;100.00
42001;BME280;27689;48.390;10.856;2023-05-11T05:25:53;95882.59;;;9.93;100.00
42001;BME280;27689;48.390;10.856;2023-05-11T05:28:37;95875.19;;;9.88;100.00
42001;BME280;27689;48.390;10.856;2023-05-11T05:31:23;95896.78;;;9.90;100.00
42001;BME280;27689;48.390;10.856;2023-05-11T05:34:07;95881.25;;;9.88;100.00
42001;BME280;27689;48.390;10.856;2023-05-11T05:36:51;95886.88;;;9.94;100.00
42001;BME280;27689;48.390;10.856;2023-05-11T05:39:35;95890.31;;;9.94;100.00
42001;BME280;27689;48.390;10.856;2023-05-11T05:42:19;95892.09;;;9.94;100.00
42001;BME280;27689;48.390;10.856;2023-05-11T05:45:05;95899.03;;;10.03;100.00
42001;BME280;27689;48.390;10.856;2023-05-11T05:47:49;95894.78;;;10.02;100.00
42001;BME280;27689;48.390;10.856;2023-05-11T05:50:34;95893.00;;;10.02;100.00
42001;BME280;27689;48.390;10.856;2023-05-11T05:53:18;95891.19;;;10.03;100.00
42001;BME280;27689;48.390;10.856;2023-05-11T05:56:02;95899.09;;;10.11;100.00
42001;BME280;27689;48.390;10.856;2023-05-11T05:58:46;95894.81;;;10.19;100.00
42001;BME280;27689;48.390;10.856;2023-05-11T06:01:29;95899.16;;;10.29;100.00
42001;BME280;27689;48.390;10.856;2023-05-11T06:04:14;95891.22;;;10.20;100.00
42001;BME280;27689;48.390;10.856;2023-05-11T06:06:58;95893.84;;;10.20;100.00
42001;BME280;27689;48.390;10.856;2023-05-11T06:09:43;95904.31;;;10.20;100.00
42001;BME280;27689;48.390;10.856;2023-05-11T06:12:27;95904.53;;;10.27;100.00
42001;BME280;27689;48.390;10.856;2023-05-11T06:15:11;95902.44;;;10.31;100.00
42001;BME280;27689;48.390;10.856;2023-05-11T06:17:55;95891.53;;;10.35;100.00
42001;BME280;27689;48.390;10.856;2023-05-11T06:20:40;95898.63;;;10.43;100.00
42001;BME280;27689;48.390;10.856;2023-05-11T06:23:24;95895.41;;;10.49;100.00
42001;BME280;27689;48.390;10.856;2023-05-11T06:26:08;95899.19;;;10.54;100.00
42001;BME280;27689;48.390;10.856;2023-05-11T06:28:52;95893.66;;;10.57;100.00
42001;BME280;27689;48.390;10.856;2023-05-11T06:31:36;95904.06;;;10.67;100.00
42001;BME280;27689;48.390;10.856;2023-05-11T06:34:21;95898.00;;;10.67;100.00
42001;BME280;27689;48.390;10.856;2023-05-11T06:37:04;95889.16;;;10.68;100.00
42001;BME280;27689;48.390;10.856;2023-05-11T06:39:48;95899.84;;;10.74;100.00
42001;BME280;27689;48.390;10.856;2023-05-11T06:42:32;95892.06;;;10.82;100.00
42001;BME280;27689;48.390;10.856;2023-05-11T06:45:17;95892.13;;;10.73;100.00
42001;BME280;27689;48.390;10.856;2023-05-11T06:48:00;95894.06;;;10.71;100.00
42001;BME280;27689;48.390;10.856;2023-05-11T06:50:44;95894.91;;;10.71;100.00
42001;BME280;27689;48.390;10.856;2023-05-11T06:53:28;95895.72;;;10.72;100.00
42001;BME280;27689;48.390;10.856;2023-05-11T06:56:12;95887.72;;;10.73;100.00
42001;BME280;27689;48.390;10.856;2023-05-11T06:58:56;95884.66;;;10.78;100.00
42001;BME280;27689;48.390;10.856;2023-05-11T07:01:40;95884.66;;;10.78;100.00
42001;BME280;27689;48.390;10.856;2023-05-11T07:04:24;95893.94;;;10.72;100.00
42001;BME280;27689;48.390;10.856;2023-05-11T07:07:09;95887.53;;;10.67;100.00
42001;BME280;27689;48.390;10.856;2023-05-11T07:09:55;95889.66;;;10.71;100.00
42001;BME280;27689;48.390;10.856;2023-05-11T07:12:40;95885.53;;;10.69;100.00
42001;BME280;27689;48.390;10.856;2023-05-11T07:15:24;95890.63;;;10.70;100.00
42001;BME280;27689;48.390;10.856;2023-05-11T07:18:08;95890.84;;;10.77;100.00
42001;BME280;27689;48.390;10.856;2023-05-11T07:20:52;95887.41;;;10.76;100.00
42001;BME280;27689;48.390;10.856;2023-05-11T07:23:36;95879.78;;;10.83;100.00
42001;BME280;27689;48.390;10.856;2023-05-11T07:26:20;95893.06;;;10.89;100.00
42001;BME280;27689;48.390;10.856;2023-05-11T07:29:04;95880.78;;;10.90;100.00
42001;BME280;27689;48.390;10.856;2023-05-11T07:31:48;95891.97;;;11.00;100.00
42001;BME280;27689;48.390;10.856;2023-05-11T07:34:32;95880.19;;;10.96;100.00
42001;BME280;27689;48.390;10.856;2023-05-11T07:37:16;95879.81;;;10.91;100.00
42001;BME280;27689;48.390;10.856;2023-05-11T07:40:00;95883.25;;;10.91;100.00
42001;BME280;27689;48.390;10.856;2023-05-11T07:42:44;95881.97;;;10.95;100.00
42001;BME280;27689;48.390;10.856;2023-05-11T07:45:28;95887.41;;;11.02;100.00
42001;BME280;27689;48.390;10.856;2023-05-11T07:48:13;95889.56;;;11.07;100.00
42001;BME280;27689;48.390;10.856;2023-05-11T07:50:57;95882.38;;;11.09;100.00
42001;BME280;27689;48.390;10.856;2023-05-11T07:53:42;95886.16;;;11.14;100.00
42001;BME280;27689;48.390;10.856;2023-05-11T07:56:25;95889.75;;;11.13;100.00
42001;BME280;27689;48.390;10.856;2023-05-11T07:59:10;95879.63;;;11.18;100.00
42001;BME280;27689;48.390;10.856;2023-05-11T08:01:54;95889.00;;;11.21;100.00
42001;BME280;27689;48.390;10.856;2023-05-11T08:04:38;95886.75;;;11.26;100.00
42001;BME280;27689;48.390;10.856;2023-05-11T08:07:22;95887.38;;;11.28;100.00
42001;BME280;27689;48.390;10.856;2023-05-11T08:10:06;95890.00;;;11.28;100.00
42001;BME280;27689;48.390;10.856;2023-05-11T08:12:50;95880.66;;;11.25;100.00
42001;BME280;27689;48.390;10.856;2023-05-11T08:15:34;95879.50;;;11.28;100.00
42001;BME280;27689;48.390;10.856;2023-05-11T08:18:18;95892.81;;;11.26;100.00
42001;BME280;27689;48.390;10.856;2023-05-11T08:21:02;95890.19;;;11.26;100.00
42001;BME280;27689;48.390;10.856;2023-05-11T08:23:46;95880.81;;;11.24;100.00
42001;BME280;27689;48.390;10.856;2023-05-11T08:26:32;95886.38;;;11.21;100.00
42001;BME280;27689;48.390;10.856;2023-05-11T08:29:16;95883.09;;;11.19;100.00
42001;BME280;27689;48.390;10.856;2023-05-11T08:32:00;95885.84;;;11.17;100.00
42001;BME280;27689;48.390;10.856;2023-05-11T08:34:43;95889.97;;;11.20;100.00
42001;BME280;27689;48.390;10.856;2023-05-11T08:37:27;95883.13;;;11.27;100.00
42001;BME280;27689;48.390;10.856;2023-05-11T08:40:12;95889.22;;;11.36;100.00
42001;BME280;27689;48.390;10.856;2023-05-11T08:42:59;95884.50;;;11.39;100.00
42001;BME280;27689;48.390;10.856;2023-05-11T08:45:45;95879.59;;;11.44;100.00
42001;BME280;27689;48.390;10.856;2023-05-11T08:48:33;95878.44;;;11.47;100.00
42001;BME280;27689;48.390;10.856;2023-05-11T08:51:18;95880.75;;;11.42;100.00
42001;BME280;27689;48.390;10.856;2023-05-11T08:54:02;95882.56;;;11.41;100.00
42001;BME280;27689;48.390;10.856;2023-05-11T08:56:46;95888.13;;;11.46;100.00
42001;BME280;27689;48.390;10.856;2023-05-11T08:59:32;95884.88;;;11.52;100.00
42001;BME280;27689;48.390;10.856;2023-05-11T09:02:17;95884.91;;;11.60;100.00
42001;BME280;27689;48.390;10.856;2023-05-11T09:05:02;95884.59;;;11.63;100.00
42001;BME280;27689;48.390;10.856;2023-05-11T09:07:49;95889.00;;;11.63;100.00
42001;BME280;27689;48.390;10.856;2023-05-11T09:10:36;95876.72;;;11.63;100.00
42001;BME280;27689;48.390;10.856;2023-05-11T09:13:20;95891.63;;;11.63;100.00
42001;BME280;27689;48.390;10.856;2023-05-11T09:16:07;95886.38;;;11.63;100.00
42001;BME280;27689;48.390;10.856;2023-05-11T09:18:52;95886.44;;;11.71;100.00
42001;BME280;27689;48.390;10.856;2023-05-11T09:21:37;95883.63;;;11.73;100.00
42001;BME280;27689;48.390;10.856;2023-05-11T09:24:21;95882.00;;;11.72;100.00
42001;BME280;27689;48.390;10.856;2023-05-11T09:27:08;95877.22;;;11.75;100.00
42001;BME280;27689;48.390;10.856;2023-05-11T09:29:53;95878.09;;;11.76;100.00
42001;BME280;27689;48.390;10.856;2023-05-11T09:35:38;95884.66;;;11.80;100.00
42001;BME280;27689;48.390;10.856;2023-05-11T09:38:23;95876.16;;;11.86;100.00
42001;BME280;27689;48.390;10.856;2023-05-11T09:41:07;95869.78;;;11.96;100.00
42001;BME280;27689;48.390;10.856;2023-05-11T09:43:51;95877.34;;;11.99;100.00
42001;BME280;27689;48.390;10.856;2023-05-11T09:46:37;95874.56;;;12.09;100.00
42001;BME280;27689;48.390;10.856;2023-05-11T09:49:28;95873.91;;;11.99;100.00
42001;BME280;27689;48.390;10.856;2023-05-11T09:52:13;95872.75;;;12.02;100.00
42001;BME280;27689;48.390;10.856;2023-05-11T09:55:09;95871.44;;;12.06;100.00
42001;BME280;27689;48.390;10.856;2023-05-11T09:57:55;95869.16;;;12.11;100.00
42001;BME280;27689;48.390;10.856;2023-05-11T10:00:47;95870.97;;;12.10;100.00
42001;BME280;27689;48.390;10.856;2023-05-11T10:03:44;95866.50;;;12.02;100.00
42001;BME280;27689;48.390;10.856;2023-05-11T10:06:48;95870.13;;;12.02;100.00
42001;BME280;27689;48.390;10.856;2023-05-11T10:09:33;95865.00;;;11.84;100.00
42001;BME280;27689;48.390;10.856;2023-05-11T10:12:20;95869.88;;;11.71;100.00
42001;BME280;27689;48.390;10.856;2023-05-11T10:15:07;95869.50;;;11.65;100.00
42001;BME280;27689;48.390;10.856;2023-05-11T10:17:56;95862.25;;;11.51;100.00
42001;BME280;27689;48.390;10.856;2023-05-11T10:20:41;95868.34;;;11.60;100.00
42001;BME280;27689;48.390;10.856;2023-05-11T10:23:25;95871.78;;;11.60;100.00
42001;BME280;27689;48.390;10.856;2023-05-11T10:26:09;95862.88;;;11.45;100.00
42001;BME280;27689;48.390;10.856;2023-05-11T10:28:53;95852.22;;;11.39;100.00
42001;BME280;27689;48.390;10.856;2023-05-11T10:31:38;95855.59;;;11.31;100.00
42001;BME280;27689;48.390;10.856;2023-05-11T10:34:23;95872.53;;;11.37;100.00
42001;BME280;27689;48.390;10.856;2023-05-11T10:37:07;95850.88;;;11.35;100.00
42001;BME280;27689;48.390;10.856;2023-05-11T10:39:52;95860.97;;;11.55;100.00
42001;BME280;27689;48.390;10.856;2023-05-11T10:45:39;95862.16;;;11.69;100.00
42001;BME280;27689;48.390;10.856;2023-05-11T10:57:47;95837.59;;;11.78;100.00
42001;BME280;27689;48.390;10.856;2023-05-11T11:01:08;95850.09;;;11.84;100.00
42001;BME280;27689;48.390;10.856;2023-05-11T11:04:03;95855.50;;;11.83;100.00
42001;BME280;27689;48.390;10.856;2023-05-11T11:07:04;95843.47;;;11.72;100.00
42001;BME280;27689;48.390;10.856;2023-05-11T11:12:32;95829.13;;;11.50;100.00
42001;BME280;27689;48.390;10.856;2023-05-11T11:15:19;95846.16;;;11.46;100.00
42001;BME280;27689;48.390;10.856;2023-05-11T11:21:09;95860.28;;;11.53;100.00
42001;BME280;27689;48.390;10.856;2023-05-11T11:23:58;95832.97;;;11.30;100.00
42001;BME280;27689;48.390;10.856;2023-05-11T11:26:48;95843.47;;;11.30;100.00
42001;BME280;27689;48.390;10.856;2023-05-11T11:29:34;95843.66;;;11.37;100.00
42001;BME280;27689;48.390;10.856;2023-05-11T11:35:02;95834.22;;;11.10;100.00
42001;BME280;27689;48.390;10.856;2023-05-11T11:38:00;95829.13;;;11.08;100.00
42001;BME280;27689;48.390;10.856;2023-05-11T11:40:49;95843.09;;;11.17;100.00
42001;BME280;27689;48.390;10.856;2023-05-11T11:43:43;95854.53;;;11.16;100.00
42001;BME280;27689;48.390;10.856;2023-05-11T11:46:28;95841.28;;;11.17;100.00
42001;BME280;27689;48.390;10.856;2023-05-11T11:49:12;95829.97;;;11.17;100.00
42001;BME280;27689;48.390;10.856;2023-05-11T11:51:56;95847.72;;;11.23;100.00
42001;BME280;27689;48.390;10.856;2023-05-11T11:54:44;95848.75;;;11.38;100.00
42001;BME280;27689;48.390;10.856;2023-05-11T12:00:19;95838.59;;;11.35;100.00
42001;BME280;27689;48.390;10.856;2023-05-11T12:03:04;95834.16;;;11.44;100.00
42001;BME280;27689;48.390;10.856;2023-05-11T12:05:51;95837.59;;;11.36;100.00
42001;BME280;27689;48.390;10.856;2023-05-11T12:08:46;95860.91;;;11.39;100.00
42001;BME280;27689;48.390;10.856;2023-05-11T12:11:32;95866.75;;;11.33;100.00
42001;BME280;27689;48.390;10.856;2023-05-11T12:14:17;95841.78;;;11.21;100.00
42001;BME280;27689;48.390;10.856;2023-05-11T12:17:02;95863.63;;;11.29;100.00
42001;BME280;27689;48.390;10.856;2023-05-11T12:19:47;95841.94;;;11.19;100.00
42001;BME280;27689;48.390;10.856;2023-05-11T12:22:31;95857.41;;;11.30;100.00
42001;BME280;27689;48.390;10.856;2023-05-11T12:25:16;95850.84;;;11.26;100.00
42001;BME280;27689;48.390;10.856;2023-05-11T12:28:00;95860.69;;;11.32;100.00
42001;BME280;27689;48.390;10.856;2023-05-11T12:30:54;95858.28;;;11.39;100.00
42001;BME280;27689;48.390;10.856;2023-05-11T12:33:49;95848.09;;;11.36;100.00
42001;BME280;27689;48.390;10.856;2023-05-11T12:36:33;95837.63;;;11.44;100.00
42001;BME280;27689;48.390;10.856;2023-05-11T12:39:22;95835.03;;;11.52;100.00
42001;BME280;27689;48.390;10.856;2023-05-11T12:42:07;95828.16;;;11.51;100.00
42001;BME280;27689;48.390;10.856;2023-05-11T12:44:53;95855.91;;;11.70;100.00
42001;BME280;27689;48.390;10.856;2023-05-11T12:47:37;95850.66;;;11.70;100.00
42001;BME280;27689;48.390;10.856;2023-05-11T12:50:22;95838.84;;;11.74;100.00
42001;BME280;27689;48.390;10.856;2023-05-11T12:53:16;95845.06;;;11.73;100.00
42001;BME280;27689;48.390;10.856;2023-05-11T12:56:01;95852.31;;;11.71;100.00
42001;BME280;27689;48.390;10.856;2023-05-11T12:58:45;95840.97;;;11.62;100.00
42001;BME280;27689;48.390;10.856;2023-05-11T13:01:29;95840.66;;;11.74;100.00
42001;BME280;27689;48.390;10.856;2023-05-11T13:04:12;95821.09;;;11.52;100.00
42001;BME280;27689;48.390;10.856;2023-05-11T13:06:59;95827.47;;;11.49;100.00
42001;BME280;27689;48.390;10.856;2023-05-11T13:09:55;95833.91;;;11.55;100.00
42001;BME280;27689;48.390;10.856;2023-05-11T13:12:50;95820.63;;;11.56;100.00
42001;BME280;27689;48.390;10.856;2023-05-11T13:15:49;95818.81;;;11.57;100.00
42001;BME280;27689;48.390;10.856;2023-05-11T13:18:33;95819.97;;;11.62;100.00
42001;BME280;27689;48.390;10.856;2023-05-11T13:21:18;95838.03;;;11.74;100.00
42001;BME280;27689;48.390;10.856;2023-05-11T13:24:05;95830.16;;;11.74;100.00
42001;BME280;27689;48.390;10.856;2023-05-11T13:26:50;95825.59;;;11.76;100.00
42001;BME280;27689;48.390;10.856;2023-05-11T13:29:34;95818.69;;;11.75;100.00
42001;BME280;27689;48.390;10.856;2023-05-11T13:32:18;95817.41;;;11.79;100.00
42001;BME280;27689;48.390;10.856;2023-05-11T13:35:03;95810.22;;;11.81;100.00
42001;BME280;27689;48.390;10.856;2023-05-11T13:37:47;95805.13;;;11.79;100.00
42001;BME280;27689;48.390;10.856;2023-05-11T13:40:31;95814.81;;;11.95;100.00
42001;BME280;27689;48.390;10.856;2023-05-11T13:43:15;95806.59;;;11.90;100.00
42001;BME280;27689;48.390;10.856;2023-05-11T13:45:59;95813.00;;;11.87;100.00
42001;BME280;27689;48.390;10.856;2023-05-11T13:48:43;95815.44;;;11.81;100.00
42001;BME280;27689;48.390;10.856;2023-05-11T13:51:27;95809.69;;;11.77;100.00
42001;BME280;27689;48.390;10.856;2023-05-11T13:54:11;95815.44;;;11.81;100.00
42001;BME280;27689;48.390;10.856;2023-05-11T13:56:55;95817.75;;;11.84;100.00
42001;BME280;27689;48.390;10.856;2023-05-11T13:59:39;95817.44;;;11.87;100.00
42001;BME280;27689;48.390;10.856;2023-05-11T14:02:23;95812.00;;;11.88;100.00
42001;BME280;27689;48.390;10.856;2023-05-11T14:05:08;95803.16;;;11.89;100.00
42001;BME280;27689;48.390;10.856;2023-05-11T14:07:52;95804.94;;;11.89;100.00
42001;BME280;27689;48.390;10.856;2023-05-11T14:10:36;95803.00;;;11.91;100.00
42001;BME280;27689;48.390;10.856;2023-05-11T14:13:20;95810.88;;;11.91;100.00
42001;BME280;27689;48.390;10.856;2023-05-11T14:16:05;95806.63;;;11.98;100.00
42001;BME280;27689;48.390;10.856;2023-05-11T14:18:49;95797.09;;;11.97;100.00
42001;BME280;27689;48.390;10.856;2023-05-11T14:21:34;95806.13;;;12.11;100.00
42001;BME280;27689;48.390;10.856;2023-05-11T14:24:19;95800.06;;;12.10;100.00
42001;BME280;27689;48.390;10.856;2023-05-11T14:27:04;95808.09;;;12.09;100.00
42001;BME280;27689;48.390;10.856;2023-05-11T14:29:48;95799.25;;;12.10;100.00
42001;BME280;27689;48.390;10.856;2023-05-11T14:32:34;95793.50;;;12.06;100.00
42001;BME280;27689;48.390;10.856;2023-05-11T14:35:19;95797.09;;;12.13;100.00
42001;BME280;27689;48.390;10.856;2023-05-11T14:38:03;95797.78;;;12.15;100.00
42001;BME280;27689;48.390;10.856;2023-05-11T14:40:48;95792.81;;;12.20;100.00
42001;BME280;27689;48.390;10.856;2023-05-11T14:43:33;95799.25;;;12.26;100.00
42001;BME280;27689;48.390;10.856;2023-05-11T14:46:17;95800.69;;;12.36;100.00
42001;BME280;27689;48.390;10.856;2023-05-11T14:49:02;95799.06;;;12.35;100.00
42001;BME280;27689;48.390;10.856;2023-05-11T14:51:46;95799.06;;;12.35;100.00
42001;BME280;27689;48.390;10.856;2023-05-11T14:54:30;95795.94;;;12.32;100.00